createdAt,value
2017-05-21T04:46:04.689Z,12.98
2017-05-21T04:46:30.163Z,12.91
2017-05-21T04:46:55.628Z,12.98
2017-05-21T04:47:21.115Z,12.94
2017-05-21T04:47:46.604Z,13.05
2017-05-21T04:48:12.038Z,13
2017-05-21T04:48:37.498Z,13.11
2017-05-21T04:49:02.966Z,13.2
2017-05-21T04:49:28.474Z,13.15
2017-05-21T04:49:53.918Z,13.16
2017-05-21T04:50:19.392Z,13.19
2017-05-21T04:50:44.847Z,13.19
2017-05-21T04:51:10.317Z,13.23
2017-05-21T04:51:35.783Z,13.23
2017-05-21T04:52:01.256Z,13.25
2017-05-21T04:52:26.714Z,13.27
2017-05-21T04:52:52.164Z,13.35
2017-05-21T04:53:17.652Z,13.37
2017-05-21T04:53:43.141Z,13.39
2017-05-21T04:54:08.619Z,13.38
2017-05-21T04:54:34.069Z,13.38
2017-05-21T04:54:59.537Z,13.41
2017-05-21T04:55:25.026Z,13.5
2017-05-21T04:55:50.486Z,13.49
2017-05-21T04:56:15.962Z,13.57
2017-05-21T04:56:41.418Z,13.53
2017-05-21T04:57:06.872Z,13.63
2017-05-21T04:57:32.349Z,13.63
2017-05-21T04:57:57.811Z,13.6
2017-05-21T04:58:23.250Z,13.63
2017-05-21T04:58:48.734Z,13.77
2017-05-21T04:59:14.221Z,13.71
2017-05-21T04:59:39.699Z,13.75
2017-05-21T05:00:05.158Z,13.72
2017-05-21T05:00:30.615Z,13.81
2017-05-21T05:00:56.086Z,13.79
2017-05-21T05:01:21.544Z,13.7
2017-05-21T05:01:47.004Z,13.85
2017-05-21T05:02:12.468Z,13.86
2017-05-21T05:02:37.906Z,13.78
2017-05-21T05:03:03.369Z,13.92
2017-05-21T05:03:28.819Z,13.81
2017-05-21T05:03:54.276Z,13.77
2017-05-21T05:04:19.746Z,13.78
2017-05-21T05:04:45.210Z,13.89
2017-05-21T05:05:10.666Z,13.78
2017-05-21T05:05:36.119Z,13.85
2017-05-21T05:06:01.573Z,13.85
2017-05-21T05:06:27.047Z,13.93
2017-05-21T05:06:52.506Z,13.89
2017-05-21T05:07:17.979Z,13.89
2017-05-21T05:07:43.452Z,13.95
2017-05-21T05:08:08.932Z,13.99
2017-05-21T05:08:34.387Z,14
2017-05-21T05:08:59.870Z,14.03
2017-05-21T05:09:25.333Z,14.08
2017-05-21T05:09:50.804Z,14.07
2017-05-21T05:10:16.261Z,14.07
2017-05-21T05:10:41.721Z,14.12
2017-05-21T05:11:07.190Z,14.18
2017-05-21T05:11:32.653Z,14.12
2017-05-21T05:11:58.143Z,14.15
2017-05-21T05:12:23.613Z,14.12
2017-05-21T05:12:49.061Z,14.12
2017-05-21T05:13:14.509Z,14.08
2017-05-21T05:13:39.972Z,14.11
2017-05-21T05:14:05.441Z,14.25
2017-05-21T05:14:30.895Z,14.15
2017-05-21T05:14:56.350Z,14.17
2017-05-21T05:15:21.845Z,14.18
2017-05-21T05:15:47.298Z,14.15
2017-05-21T05:16:12.767Z,14.17
2017-05-21T05:16:38.269Z,14.18
2017-05-21T05:17:03.715Z,14.15
2017-05-21T05:17:29.170Z,14.15
2017-05-21T05:17:54.650Z,14.2
2017-05-21T05:18:20.125Z,14.26
2017-05-21T05:18:45.578Z,14.25
2017-05-21T05:19:11.046Z,14.23
2017-05-21T05:19:36.540Z,14.26
2017-05-21T05:20:01.997Z,14.23
2017-05-21T05:20:27.441Z,14.22
2017-05-21T05:20:52.918Z,14.29
2017-05-21T05:21:18.389Z,14.33
2017-05-21T05:21:43.865Z,14.36
2017-05-21T05:22:09.329Z,14.37
2017-05-21T05:22:34.800Z,14.35
2017-05-21T05:23:00.248Z,14.48
2017-05-21T05:23:25.723Z,14.47
2017-05-21T05:23:51.178Z,14.5
2017-05-21T05:24:16.673Z,14.51
2017-05-21T05:24:42.113Z,14.6
2017-05-21T05:25:07.621Z,14.62
2017-05-21T05:25:33.082Z,14.68
2017-05-21T05:25:58.562Z,14.66
2017-05-21T05:26:24.009Z,14.72
2017-05-21T05:26:49.491Z,14.69
2017-05-21T05:27:14.960Z,14.72
2017-05-21T05:27:40.416Z,14.73
2017-05-21T05:28:05.873Z,14.72
2017-05-21T05:28:31.336Z,14.84
2017-05-21T05:28:56.818Z,14.82
2017-05-21T05:29:22.263Z,14.88
2017-05-21T05:29:47.729Z,14.92
2017-05-21T05:30:13.184Z,14.97
2017-05-21T05:30:38.632Z,14.99
2017-05-21T05:31:04.089Z,15.02
2017-05-21T05:31:29.536Z,14.99
2017-05-21T05:31:55.032Z,14.91
2017-05-21T05:32:20.501Z,15.03
2017-05-21T05:32:45.976Z,15.07
2017-05-21T05:33:11.407Z,15.03
2017-05-21T05:33:36.883Z,15.07
2017-05-21T05:34:02.340Z,15.17
2017-05-21T05:34:27.786Z,15.18
2017-05-21T05:34:53.244Z,15.18
2017-05-21T05:35:18.789Z,15.22
2017-05-21T05:35:44.246Z,15.17
2017-05-21T05:36:09.712Z,15.15
2017-05-21T05:36:35.165Z,15.25
2017-05-21T05:37:00.632Z,15.28
2017-05-21T05:37:26.079Z,15.33
2017-05-21T05:37:51.520Z,15.35
2017-05-21T05:38:16.973Z,15.33
2017-05-21T05:38:42.470Z,15.31
2017-05-21T05:39:07.916Z,15.35
2017-05-21T05:39:33.406Z,15.39
2017-05-21T05:39:58.881Z,15.4
2017-05-21T05:40:24.357Z,15.47
2017-05-21T05:40:49.817Z,15.4
2017-05-21T05:41:15.278Z,15.46
2017-05-21T05:41:40.795Z,15.52
2017-05-21T05:42:06.190Z,15.57
2017-05-21T05:42:31.655Z,15.54
2017-05-21T05:42:57.154Z,15.62
2017-05-21T05:43:22.611Z,15.54
2017-05-21T05:43:48.086Z,15.62
2017-05-21T05:44:13.554Z,15.62
2017-05-21T05:44:39.026Z,15.59
2017-05-21T05:45:04.514Z,15.64
2017-05-21T05:45:29.979Z,15.7
2017-05-21T05:45:55.408Z,15.65
2017-05-21T05:46:20.899Z,15.67
2017-05-21T05:46:46.357Z,15.61
2017-05-21T05:47:11.813Z,15.68
2017-05-21T05:47:37.299Z,15.73
2017-05-21T05:48:02.764Z,15.76
2017-05-21T05:48:28.220Z,15.77
2017-05-21T05:48:53.679Z,15.86
2017-05-21T05:49:19.160Z,15.82
2017-05-21T05:49:44.648Z,15.72
2017-05-21T05:50:10.116Z,15.77
2017-05-21T05:50:35.583Z,15.8
2017-05-21T05:51:01.034Z,15.79
2017-05-21T05:51:26.498Z,15.83
2017-05-21T05:51:51.963Z,15.84
2017-05-21T05:52:17.434Z,15.92
2017-05-21T05:52:42.890Z,15.9
2017-05-21T05:53:08.366Z,15.83
2017-05-21T05:53:33.830Z,15.95
2017-05-21T05:53:59.323Z,15.95
2017-05-21T05:54:24.787Z,15.84
2017-05-21T05:54:50.247Z,15.95
2017-05-21T05:55:15.727Z,15.94
2017-05-21T05:55:41.163Z,15.92
2017-05-21T05:56:06.639Z,16.08
2017-05-21T05:56:32.092Z,16.02
2017-05-21T05:56:57.568Z,15.9
2017-05-21T05:57:23.048Z,15.97
2017-05-21T05:57:48.523Z,16
2017-05-21T05:58:14.010Z,16.12
2017-05-21T05:58:39.450Z,16.08
2017-05-21T05:59:04.907Z,16.12
2017-05-21T05:59:30.352Z,16.1
2017-05-21T05:59:55.820Z,16.17
2017-05-21T06:00:21.276Z,16.15
2017-05-21T06:00:46.802Z,16.17
2017-05-21T06:01:12.260Z,16.16
2017-05-21T06:01:37.712Z,16.13
2017-05-21T06:02:03.165Z,16.13
2017-05-21T06:02:28.633Z,16.31
2017-05-21T06:02:54.141Z,16.29
2017-05-21T06:03:19.569Z,16.2
2017-05-21T06:03:45.042Z,16.26
2017-05-21T06:04:10.537Z,16.24
2017-05-21T06:04:36.067Z,16.29
2017-05-21T06:05:01.531Z,16.29
2017-05-21T06:05:27.001Z,16.39
2017-05-21T06:05:52.435Z,16.39
2017-05-21T06:06:17.893Z,16.39
2017-05-21T06:06:43.369Z,16.41
2017-05-21T06:07:08.834Z,16.41
2017-05-21T06:07:34.290Z,16.42
2017-05-21T06:07:59.740Z,16.5
2017-05-21T06:08:25.190Z,16.58
2017-05-21T06:08:50.684Z,16.56
2017-05-21T06:09:16.159Z,16.46
2017-05-21T06:09:41.616Z,16.47
2017-05-21T06:10:07.069Z,16.57
2017-05-21T06:10:32.540Z,16.6
2017-05-21T06:10:58.021Z,16.65
2017-05-21T06:11:23.515Z,16.65
2017-05-21T06:11:48.961Z,16.66
2017-05-21T06:12:14.428Z,16.72
2017-05-21T06:12:39.875Z,16.61
2017-05-21T06:13:05.360Z,16.83
2017-05-21T06:13:30.841Z,16.69
2017-05-21T06:13:56.306Z,16.79
2017-05-21T06:14:21.789Z,16.83
2017-05-21T06:14:47.229Z,16.78
2017-05-21T06:15:12.744Z,16.81
2017-05-21T06:15:38.195Z,16.83
2017-05-21T06:16:03.713Z,16.72
2017-05-21T06:16:29.190Z,16.84
2017-05-21T06:16:54.631Z,16.84
2017-05-21T06:17:20.098Z,16.89
2017-05-21T06:17:45.577Z,16.97
2017-05-21T06:18:11.043Z,16.94
2017-05-21T06:18:36.524Z,16.93
2017-05-21T06:19:02.108Z,16.99
2017-05-21T06:19:27.610Z,17.04
2017-05-21T06:19:53.065Z,16.99
2017-05-21T06:20:18.532Z,17.06
2017-05-21T06:20:43.982Z,17.11
2017-05-21T06:21:09.455Z,17.09
2017-05-21T06:21:34.923Z,17.14
2017-05-21T06:22:00.393Z,17.23
2017-05-21T06:22:25.824Z,17.26
2017-05-21T06:22:51.334Z,17.26
2017-05-21T06:23:16.778Z,17.3
2017-05-21T06:23:42.239Z,17.34
2017-05-21T06:24:07.689Z,17.31
2017-05-21T06:24:33.141Z,17.33
2017-05-21T06:24:58.611Z,17.48
2017-05-21T06:25:24.071Z,17.48
2017-05-21T06:25:49.550Z,17.49
2017-05-21T06:26:15.032Z,17.46
2017-05-21T06:26:40.499Z,17.46
2017-05-21T06:27:05.945Z,17.52
2017-05-21T06:27:31.404Z,17.45
2017-05-21T06:27:56.856Z,17.51
2017-05-21T06:28:22.314Z,17.51
2017-05-21T06:28:47.792Z,17.63
2017-05-21T06:29:13.347Z,17.63
2017-05-21T06:29:38.784Z,17.56
2017-05-21T06:30:04.227Z,17.57
2017-05-21T06:30:29.717Z,17.65
2017-05-21T06:30:55.203Z,17.64
2017-05-21T06:31:20.633Z,17.64
2017-05-21T06:31:46.112Z,17.79
2017-05-21T06:32:11.579Z,17.71
2017-05-21T06:32:37.098Z,17.78
2017-05-21T06:33:02.508Z,17.74
2017-05-21T06:33:27.966Z,17.74
2017-05-21T06:33:53.433Z,17.79
2017-05-21T06:34:18.886Z,17.8
2017-05-21T06:34:44.386Z,17.8
2017-05-21T06:35:09.860Z,17.79
2017-05-21T06:35:35.338Z,17.85
2017-05-21T06:36:00.772Z,17.78
2017-05-21T06:36:26.265Z,17.85
2017-05-21T06:36:51.793Z,17.83
2017-05-21T06:37:17.196Z,17.83
2017-05-21T06:37:42.730Z,17.83
2017-05-21T06:38:08.179Z,17.8
2017-05-21T06:38:33.671Z,17.87
2017-05-21T06:38:59.140Z,17.86
2017-05-21T06:39:24.620Z,17.9
2017-05-21T06:39:50.092Z,18.01
2017-05-21T06:40:15.648Z,17.98
2017-05-21T06:40:41.132Z,18
2017-05-21T06:41:06.566Z,18.08
2017-05-21T06:41:32.045Z,18.1
2017-05-21T06:41:57.512Z,18.07
2017-05-21T06:42:22.977Z,18.03
2017-05-21T06:42:48.444Z,18.07
2017-05-21T06:43:13.953Z,18.1
2017-05-21T06:43:39.390Z,18.2
2017-05-21T06:44:04.863Z,18.13
2017-05-21T06:44:30.333Z,18.08
2017-05-21T06:44:55.814Z,18.22
2017-05-21T06:45:21.281Z,18.25
2017-05-21T06:45:46.736Z,18.23
2017-05-21T06:46:12.197Z,18.33
2017-05-21T06:46:37.676Z,18.26
2017-05-21T06:47:03.131Z,18.31
2017-05-21T06:47:28.616Z,18.37
2017-05-21T06:47:54.154Z,18.4
2017-05-21T06:48:19.602Z,18.37
2017-05-21T06:48:45.074Z,18.4
2017-05-21T06:49:10.532Z,18.37
2017-05-21T06:49:36.009Z,18.43
2017-05-21T06:50:01.479Z,18.35
2017-05-21T06:50:26.945Z,18.47
2017-05-21T06:50:52.397Z,18.4
2017-05-21T06:51:17.873Z,18.37
2017-05-21T06:51:43.337Z,18.4
2017-05-21T06:52:08.790Z,18.31
2017-05-21T06:52:34.256Z,18.4
2017-05-21T06:52:59.726Z,18.29
2017-05-21T06:53:25.171Z,18.29
2017-05-21T06:53:50.656Z,18.34
2017-05-21T06:54:16.124Z,18.31
2017-05-21T06:54:41.621Z,18.35
2017-05-21T06:55:07.080Z,18.37
2017-05-21T06:55:32.570Z,18.44
2017-05-21T06:55:58.049Z,18.43
2017-05-21T06:56:23.535Z,18.43
2017-05-21T06:56:49.032Z,18.49
2017-05-21T06:57:14.507Z,18.55
2017-05-21T06:57:39.961Z,18.53
2017-05-21T06:58:05.451Z,18.63
2017-05-21T06:58:30.923Z,18.65
2017-05-21T06:58:56.406Z,18.6
2017-05-21T06:59:21.896Z,18.71
2017-05-21T06:59:47.347Z,18.78
2017-05-21T07:00:12.816Z,18.77
2017-05-21T07:00:38.272Z,18.83
2017-05-21T07:01:03.740Z,18.81
2017-05-21T07:01:29.216Z,18.81
2017-05-21T07:01:54.689Z,18.86
2017-05-21T07:02:20.169Z,18.93
2017-05-21T07:02:45.668Z,18.95
2017-05-21T07:03:11.126Z,18.95
2017-05-21T07:03:36.602Z,19
2017-05-21T07:04:02.085Z,18.95
2017-05-21T07:04:27.573Z,19
2017-05-21T07:04:53.035Z,18.99
2017-05-21T07:05:18.486Z,18.99
2017-05-21T07:05:43.973Z,19.08
2017-05-21T07:06:09.459Z,19.11
2017-05-21T07:06:34.941Z,19.08
2017-05-21T07:07:00.395Z,19.12
2017-05-21T07:07:25.879Z,19.11
2017-05-21T07:07:51.355Z,19.21
2017-05-21T07:08:16.856Z,19.16
2017-05-21T07:08:42.339Z,19.21
2017-05-21T07:09:07.784Z,19.29
2017-05-21T07:09:33.253Z,19.26
2017-05-21T07:09:58.747Z,19.29
2017-05-21T07:10:24.216Z,19.19
2017-05-21T07:10:49.664Z,19.19
2017-05-21T07:11:15.153Z,19.18
2017-05-21T07:11:40.642Z,19.24
2017-05-21T07:12:06.141Z,19.27
2017-05-21T07:12:31.657Z,19.22
2017-05-21T07:12:57.085Z,19.3
2017-05-21T07:13:22.560Z,19.31
2017-05-21T07:13:48.029Z,19.27
2017-05-21T07:14:13.514Z,19.39
2017-05-21T07:14:38.977Z,19.36
2017-05-21T07:15:04.431Z,19.4
2017-05-21T07:15:29.915Z,19.4
2017-05-21T07:15:55.398Z,19.41
2017-05-21T07:16:20.843Z,19.41
2017-05-21T07:16:46.320Z,19.55
2017-05-21T07:17:11.807Z,19.48
2017-05-21T07:17:37.279Z,19.49
2017-05-21T07:18:02.766Z,19.54
2017-05-21T07:18:28.248Z,19.49
2017-05-21T07:18:53.702Z,19.49
2017-05-21T07:19:19.174Z,19.54
2017-05-21T07:19:44.646Z,19.52
2017-05-21T07:20:10.102Z,19.55
2017-05-21T07:20:35.545Z,19.66
2017-05-21T07:21:01.001Z,19.69
2017-05-21T07:21:26.527Z,19.64
2017-05-21T07:21:51.951Z,19.66
2017-05-21T07:22:17.436Z,19.63
2017-05-21T07:22:42.906Z,19.63
2017-05-21T07:23:08.369Z,19.73
2017-05-21T07:23:33.886Z,19.7
2017-05-21T07:23:59.359Z,19.71
2017-05-21T07:24:24.841Z,19.84
2017-05-21T07:24:50.341Z,19.88
2017-05-21T07:25:15.815Z,19.86
2017-05-21T07:25:41.271Z,19.91
2017-05-21T07:26:06.741Z,19.99
2017-05-21T07:26:32.243Z,20.02
2017-05-21T07:26:57.724Z,20.06
2017-05-21T07:27:23.194Z,20.09
2017-05-21T07:27:48.690Z,20.16
2017-05-21T07:28:14.163Z,20.18
2017-05-21T07:28:39.645Z,20.16
2017-05-21T07:29:05.096Z,20.24
2017-05-21T07:29:30.586Z,20.25
2017-05-21T07:29:56.047Z,20.26
2017-05-21T07:30:21.517Z,20.24
2017-05-21T07:30:47.026Z,20.26
2017-05-21T07:31:12.466Z,20.29
2017-05-21T07:31:37.930Z,20.37
2017-05-21T07:32:03.402Z,20.37
2017-05-21T07:32:28.908Z,20.39
2017-05-21T07:32:54.326Z,20.5
2017-05-21T07:33:19.840Z,20.55
2017-05-21T07:33:45.293Z,20.47
2017-05-21T07:34:10.777Z,20.55
2017-05-21T07:34:36.258Z,20.62
2017-05-21T07:35:01.713Z,20.6
2017-05-21T07:35:27.185Z,20.6
2017-05-21T07:35:52.683Z,20.62
2017-05-21T07:36:18.178Z,20.67
2017-05-21T07:36:43.679Z,20.69
2017-05-21T07:37:09.145Z,20.74
2017-05-21T07:37:34.632Z,20.74
2017-05-21T07:38:00.080Z,20.78
2017-05-21T07:38:25.569Z,20.69
2017-05-21T07:38:51.049Z,20.7
2017-05-21T07:39:16.545Z,20.69
2017-05-21T07:39:42.060Z,20.81
2017-05-21T07:40:07.487Z,20.82
2017-05-21T07:40:32.966Z,20.81
2017-05-21T07:40:58.446Z,20.77
2017-05-21T07:41:23.913Z,20.85
2017-05-21T07:41:49.396Z,20.84
2017-05-21T07:42:14.892Z,20.81
2017-05-21T07:42:40.385Z,20.81
2017-05-21T07:43:05.829Z,20.77
2017-05-21T07:43:31.290Z,20.81
2017-05-21T07:43:56.781Z,20.78
2017-05-21T07:44:22.244Z,20.82
2017-05-21T07:44:47.731Z,20.74
2017-05-21T07:45:13.207Z,20.7
2017-05-21T07:45:38.688Z,20.81
2017-05-21T07:46:04.186Z,20.84
2017-05-21T07:46:29.626Z,20.75
2017-05-21T07:46:55.108Z,20.81
2017-05-21T07:47:20.575Z,20.7
2017-05-21T07:47:46.040Z,20.78
2017-05-21T07:48:11.514Z,20.85
2017-05-21T07:48:36.983Z,20.81
2017-05-21T07:49:02.514Z,20.81
2017-05-21T07:49:27.990Z,20.8
2017-05-21T07:49:53.509Z,20.82
2017-05-21T07:50:19.002Z,20.85
2017-05-21T07:50:44.473Z,20.9
2017-05-21T07:51:09.972Z,20.95
2017-05-21T07:51:35.447Z,20.92
2017-05-21T07:52:00.930Z,20.96
2017-05-21T07:52:26.381Z,20.92
2017-05-21T07:52:51.859Z,20.95
2017-05-21T07:53:17.335Z,21.14
2017-05-21T07:53:42.805Z,21.05
2017-05-21T07:54:08.268Z,21.05
2017-05-21T07:54:33.735Z,21.06
2017-05-21T07:54:59.198Z,21.05
2017-05-21T07:55:24.677Z,21.15
2017-05-21T07:55:50.140Z,21.2
2017-05-21T07:56:15.639Z,21.18
2017-05-21T07:56:41.112Z,21.18
2017-05-21T07:57:06.566Z,21.22
2017-05-21T07:57:32.028Z,21.21
2017-05-21T07:57:57.495Z,21.25
2017-05-21T07:58:22.937Z,21.25
2017-05-21T07:58:48.423Z,21.21
2017-05-21T07:59:13.876Z,21.24
2017-05-21T07:59:39.327Z,21.25
2017-05-21T08:00:04.785Z,21.27
2017-05-21T08:00:30.265Z,21.29
2017-05-21T08:00:55.731Z,21.29
2017-05-21T08:01:21.211Z,21.25
2017-05-21T08:01:46.673Z,21.15
2017-05-21T08:02:12.146Z,21.35
2017-05-21T08:02:37.609Z,21.32
2017-05-21T08:03:03.110Z,21.37
2017-05-21T08:03:28.579Z,21.39
2017-05-21T08:03:54.032Z,21.37
2017-05-21T08:04:19.508Z,21.46
2017-05-21T08:04:44.986Z,21.48
2017-05-21T08:05:10.479Z,21.43
2017-05-21T08:05:35.970Z,21.42
2017-05-21T08:06:01.448Z,21.37
2017-05-21T08:06:26.883Z,21.42
2017-05-21T08:06:52.350Z,21.42
2017-05-21T08:07:17.862Z,21.4
2017-05-21T08:07:43.294Z,21.5
2017-05-21T08:08:08.769Z,21.46
2017-05-21T08:08:34.233Z,21.52
2017-05-21T08:08:59.717Z,21.48
2017-05-21T08:09:25.172Z,21.45
2017-05-21T08:09:50.644Z,21.51
2017-05-21T08:10:16.113Z,21.54
2017-05-21T08:10:41.601Z,21.55
2017-05-21T08:11:07.119Z,21.46
2017-05-21T08:11:32.565Z,21.61
2017-05-21T08:11:58.037Z,21.54
2017-05-21T08:12:23.540Z,21.58
2017-05-21T08:12:49.024Z,21.48
2017-05-21T08:13:14.509Z,21.46
2017-05-21T08:13:39.975Z,21.5
2017-05-21T08:14:05.519Z,21.57
2017-05-21T08:14:30.942Z,21.55
2017-05-21T08:14:56.388Z,21.55
2017-05-21T08:15:21.879Z,21.57
2017-05-21T08:15:47.340Z,21.6
2017-05-21T08:16:12.813Z,21.58
2017-05-21T08:16:38.315Z,21.51
2017-05-21T08:17:03.795Z,21.51
2017-05-21T08:17:29.248Z,21.48
2017-05-21T08:17:54.697Z,21.58
2017-05-21T08:18:20.193Z,21.52
2017-05-21T08:18:45.674Z,21.58
2017-05-21T08:19:11.156Z,21.57
2017-05-21T08:19:36.622Z,21.57
2017-05-21T08:20:02.078Z,21.55
2017-05-21T08:20:27.564Z,21.55
2017-05-21T08:20:53.035Z,21.55
2017-05-21T08:21:18.490Z,21.58
2017-05-21T08:21:43.996Z,21.57
2017-05-21T08:22:09.454Z,21.61
2017-05-21T08:22:34.962Z,21.57
2017-05-21T08:23:00.445Z,21.61
2017-05-21T08:23:25.907Z,21.67
2017-05-21T08:23:51.374Z,21.66
2017-05-21T08:24:16.833Z,21.61
2017-05-21T08:24:42.291Z,21.7
2017-05-21T08:25:07.749Z,21.66
2017-05-21T08:25:33.221Z,21.66
2017-05-21T08:25:58.714Z,21.69
2017-05-21T08:26:24.219Z,21.67
2017-05-21T08:26:49.699Z,21.67
2017-05-21T08:27:15.147Z,21.73
2017-05-21T08:27:40.661Z,21.83
2017-05-21T08:28:06.114Z,21.89
2017-05-21T08:28:31.570Z,21.88
2017-05-21T08:28:57.025Z,21.91
2017-05-21T08:29:22.490Z,21.98
2017-05-21T08:29:47.958Z,21.96
2017-05-21T08:30:13.408Z,21.92
2017-05-21T08:30:38.890Z,22.02
2017-05-21T08:31:04.353Z,22.08
2017-05-21T08:31:29.790Z,22.02
2017-05-21T08:31:55.275Z,21.98
2017-05-21T08:32:20.735Z,21.99
2017-05-21T08:32:46.220Z,22
2017-05-21T08:33:11.682Z,22.02
2017-05-21T08:33:37.213Z,21.98
2017-05-21T08:34:02.636Z,21.98
2017-05-21T08:34:28.092Z,22.07
2017-05-21T08:34:53.559Z,22.06
2017-05-21T08:35:19.101Z,22.02
2017-05-21T08:35:44.558Z,22.02
2017-05-21T08:36:10.063Z,22.07
2017-05-21T08:36:35.515Z,22.07
2017-05-21T08:37:00.955Z,22.07
2017-05-21T08:37:26.446Z,22
2017-05-21T08:37:51.909Z,22
2017-05-21T08:38:17.362Z,21.99
2017-05-21T08:38:42.820Z,22.08
2017-05-21T08:39:08.350Z,22
2017-05-21T08:39:33.776Z,22
2017-05-21T08:39:59.260Z,22
2017-05-21T08:40:24.743Z,22.14
2017-05-21T08:40:50.181Z,22.02
2017-05-21T08:41:15.676Z,22.17
2017-05-21T08:41:41.168Z,22
2017-05-21T08:42:06.619Z,22.13
2017-05-21T08:42:32.118Z,22.02
2017-05-21T08:42:57.608Z,22.1
2017-05-21T08:43:23.064Z,22
2017-05-21T08:43:48.562Z,22
2017-05-21T08:44:14.116Z,22.14
2017-05-21T08:44:39.590Z,22.2
2017-05-21T08:45:05.074Z,22.1
2017-05-21T08:45:30.546Z,22.13
2017-05-21T08:45:56.040Z,22.2
2017-05-21T08:46:21.479Z,22.18
2017-05-21T08:46:46.940Z,22.17
2017-05-21T08:47:12.407Z,22.2
2017-05-21T08:47:37.980Z,22.25
2017-05-21T08:48:03.436Z,22.23
2017-05-21T08:48:28.925Z,22.28
2017-05-21T08:48:54.390Z,22.3
2017-05-21T08:49:19.858Z,22.39
2017-05-21T08:49:45.339Z,22.3
2017-05-21T08:50:10.803Z,22.33
2017-05-21T08:50:36.302Z,22.36
2017-05-21T08:51:01.752Z,22.32
2017-05-21T08:51:27.230Z,22.35
2017-05-21T08:51:52.700Z,22.33
2017-05-21T08:52:18.175Z,22.39
2017-05-21T08:52:43.661Z,22.41
2017-05-21T08:53:09.155Z,22.36
2017-05-21T08:53:34.594Z,22.35
2017-05-21T08:54:00.088Z,22.36
2017-05-21T08:54:25.531Z,22.39
2017-05-21T08:54:51.041Z,22.41
2017-05-21T08:55:16.444Z,22.33
2017-05-21T08:55:41.922Z,22.39
2017-05-21T08:56:07.488Z,22.35
2017-05-21T08:56:32.935Z,22.35
2017-05-21T08:56:58.391Z,22.35
2017-05-21T08:57:23.876Z,22.33
2017-05-21T08:57:49.334Z,22.28
2017-05-21T08:58:14.804Z,22.29
2017-05-21T08:58:40.283Z,22.25
2017-05-21T08:59:05.751Z,22.3
2017-05-21T08:59:31.285Z,22.22
2017-05-21T08:59:56.705Z,22.23
2017-05-21T09:00:22.192Z,22.28
2017-05-21T09:00:47.644Z,22.2
2017-05-21T09:01:13.157Z,22.23
2017-05-21T09:01:38.609Z,22.22
2017-05-21T09:02:04.089Z,22.22
2017-05-21T09:02:29.544Z,22.17
2017-05-21T09:02:55.022Z,22.11
2017-05-21T09:03:20.475Z,22.1
2017-05-21T09:03:46.163Z,22.1
2017-05-21T09:04:11.618Z,22.15
2017-05-21T09:04:37.091Z,22.22
2017-05-21T09:05:02.547Z,22.11
2017-05-21T09:05:28.017Z,22.17
2017-05-21T09:05:53.447Z,22.14
2017-05-21T09:06:18.949Z,22.11
2017-05-21T09:06:44.429Z,22.17
2017-05-21T09:07:09.898Z,22.18
2017-05-21T09:07:35.370Z,22.22
2017-05-21T09:08:00.850Z,22.22
2017-05-21T09:08:26.347Z,22.28
2017-05-21T09:08:51.778Z,22.18
2017-05-21T09:09:17.286Z,22.22
2017-05-21T09:09:42.749Z,22.35
2017-05-21T09:10:08.232Z,22.3
2017-05-21T09:10:33.686Z,22.32
2017-05-21T09:10:59.151Z,22.39
2017-05-21T09:11:24.634Z,22.41
2017-05-21T09:11:50.102Z,22.36
2017-05-21T09:12:15.577Z,22.5
2017-05-21T09:12:41.031Z,22.5
2017-05-21T09:13:06.516Z,22.53
2017-05-21T09:13:32.009Z,22.53
2017-05-21T09:13:57.492Z,22.55
2017-05-21T09:14:22.952Z,22.59
2017-05-21T09:14:48.427Z,22.53
2017-05-21T09:15:13.899Z,22.62
2017-05-21T09:15:39.371Z,22.59
2017-05-21T09:16:04.852Z,22.65
2017-05-21T09:16:30.350Z,22.68
2017-05-21T09:16:55.800Z,22.59
2017-05-21T09:17:21.289Z,22.62
2017-05-21T09:17:46.748Z,22.72
2017-05-21T09:18:12.229Z,22.73
2017-05-21T09:18:37.722Z,22.72
2017-05-21T09:19:03.187Z,22.81
2017-05-21T09:19:28.709Z,22.81
2017-05-21T09:19:54.136Z,22.81
2017-05-21T09:20:19.616Z,22.85
2017-05-21T09:20:45.078Z,22.87
2017-05-21T09:21:10.557Z,22.99
2017-05-21T09:21:35.993Z,22.98
2017-05-21T09:22:01.468Z,23.1
2017-05-21T09:22:26.940Z,23.08
2017-05-21T09:22:52.401Z,23.13
2017-05-21T09:23:17.864Z,23.21
2017-05-21T09:23:43.356Z,23.34
2017-05-21T09:24:08.832Z,23.39
2017-05-21T09:24:34.291Z,23.46
2017-05-21T09:24:59.767Z,23.54
2017-05-21T09:25:25.265Z,23.61
2017-05-21T09:25:50.744Z,23.65
2017-05-21T09:26:16.224Z,23.78
2017-05-21T09:26:41.713Z,23.83
2017-05-21T09:27:07.136Z,23.84
2017-05-21T09:27:32.591Z,23.96
2017-05-21T09:27:58.044Z,23.96
2017-05-21T09:28:23.520Z,24.06
2017-05-21T09:28:49.000Z,24.05
2017-05-21T09:29:14.484Z,24.03
2017-05-21T09:29:39.944Z,24.14
2017-05-21T09:30:05.411Z,24.18
2017-05-21T09:30:30.883Z,24.2
2017-05-21T09:30:56.349Z,24.2
2017-05-21T09:31:21.854Z,24.26
2017-05-21T09:31:47.331Z,24.36
2017-05-21T09:32:12.790Z,24.32
2017-05-21T09:32:38.269Z,24.43
2017-05-21T09:33:03.737Z,24.48
2017-05-21T09:33:29.221Z,24.58
2017-05-21T09:33:54.684Z,24.51
2017-05-21T09:34:20.149Z,24.6
2017-05-21T09:34:45.617Z,24.58
2017-05-21T09:35:11.103Z,24.6
2017-05-21T09:35:36.551Z,24.63
2017-05-21T09:36:02.051Z,24.55
2017-05-21T09:36:27.501Z,24.57
2017-05-21T09:36:52.985Z,24.63
2017-05-21T09:37:18.458Z,24.63
2017-05-21T09:37:43.920Z,24.63
2017-05-21T09:38:09.822Z,24.65
2017-05-21T09:38:35.410Z,24.54
2017-05-21T09:39:00.862Z,24.55
2017-05-21T09:39:26.352Z,24.51
2017-05-21T09:39:51.802Z,24.45
2017-05-21T09:40:17.287Z,24.33
2017-05-21T09:40:42.806Z,24.38
2017-05-21T09:41:08.302Z,24.4
2017-05-21T09:41:33.729Z,24.36
2017-05-21T09:41:59.212Z,24.33
2017-05-21T09:42:24.657Z,24.32
2017-05-21T09:42:50.130Z,24.32
2017-05-21T09:43:15.599Z,24.45
2017-05-21T09:43:41.072Z,24.42
2017-05-21T09:44:06.518Z,24.43
2017-05-21T09:44:31.995Z,24.32
2017-05-21T09:44:57.454Z,24.39
2017-05-21T09:45:22.912Z,24.33
2017-05-21T09:45:48.450Z,24.39
2017-05-21T09:46:13.946Z,24.47
2017-05-21T09:46:39.523Z,24.45
2017-05-21T09:47:04.972Z,24.54
2017-05-21T09:47:30.437Z,24.53
2017-05-21T09:47:55.905Z,24.5
2017-05-21T09:48:21.385Z,24.5
2017-05-21T09:48:46.842Z,24.43
2017-05-21T09:49:12.324Z,24.53
2017-05-21T09:49:37.778Z,24.53
2017-05-21T09:50:03.309Z,24.58
2017-05-21T09:50:28.817Z,24.51
2017-05-21T09:50:54.271Z,24.69
2017-05-21T09:51:19.741Z,24.57
2017-05-21T09:51:45.208Z,24.55
2017-05-21T09:52:10.668Z,24.6
2017-05-21T09:52:36.166Z,24.58
2017-05-21T09:53:01.644Z,24.6
2017-05-21T09:53:27.140Z,24.63
2017-05-21T09:53:52.611Z,24.68
2017-05-21T09:54:18.094Z,24.69
2017-05-21T09:54:43.581Z,24.66
2017-05-21T09:55:09.062Z,24.77
2017-05-21T09:55:34.548Z,24.81
2017-05-21T09:55:59.991Z,24.85
2017-05-21T09:56:25.486Z,24.81
2017-05-21T09:56:50.973Z,24.95
2017-05-21T09:57:16.466Z,24.91
2017-05-21T09:57:41.912Z,24.86
2017-05-21T09:58:07.418Z,24.91
2017-05-21T09:58:32.903Z,24.77
2017-05-21T09:58:58.382Z,24.76
2017-05-21T09:59:23.853Z,24.77
2017-05-21T09:59:49.324Z,24.74
2017-05-21T10:00:14.788Z,24.74
2017-05-21T10:00:40.252Z,24.65
2017-05-21T10:01:05.721Z,24.69
2017-05-21T10:01:31.174Z,24.65
2017-05-21T10:01:56.642Z,24.65
2017-05-21T10:02:22.116Z,24.66
2017-05-21T10:02:47.578Z,24.69
2017-05-21T10:03:13.053Z,24.58
2017-05-21T10:03:38.519Z,24.69
2017-05-21T10:04:03.992Z,24.63
2017-05-21T10:04:29.469Z,24.69
2017-05-21T10:04:54.959Z,24.53
2017-05-21T10:05:20.422Z,24.53
2017-05-21T10:05:45.883Z,24.42
2017-05-21T10:06:11.353Z,24.33
2017-05-21T10:06:36.846Z,24.35
2017-05-21T10:07:02.304Z,24.33
2017-05-21T10:07:27.785Z,24.39
2017-05-21T10:07:53.282Z,24.35
2017-05-21T10:08:18.734Z,24.33
2017-05-21T10:08:44.191Z,24.47
2017-05-21T10:09:09.658Z,24.42
2017-05-21T10:09:35.148Z,24.53
2017-05-21T10:10:00.606Z,24.48
2017-05-21T10:10:26.101Z,24.45
2017-05-21T10:10:51.573Z,24.58
2017-05-21T10:11:17.049Z,24.66
2017-05-21T10:11:42.545Z,24.58
2017-05-21T10:12:08.015Z,24.6
2017-05-21T10:12:33.501Z,24.6
2017-05-21T10:12:58.991Z,24.58
2017-05-21T10:13:24.484Z,24.69
2017-05-21T10:13:49.950Z,24.66
2017-05-21T10:14:15.422Z,24.61
2017-05-21T10:14:40.900Z,24.68
2017-05-21T10:15:06.370Z,24.66
2017-05-21T10:15:31.828Z,24.74